sensor_id;sensor_type;location;lat;lon;timestamp;pressure;altitude;pressure_sealevel;temperature;humidity
11223;BME280;5668;52.012;8.724;2023-07-13T00:00:38;99992.75;;;21.77;59.94
11223;BME280;5668;52.012;8.724;2023-07-13T00:03:04;99985.81;;;21.76;60.01
11223;BME280;5668;52.012;8.724;2023-07-13T00:05:31;99989.03;;;21.72;60.60
11223;BME280;5668;52.012;8.724;2023-07-13T00:07:58;99993.84;;;21.68;60.69
11223;BME280;5668;52.012;8.724;2023-07-13T00:10:26;99989.75;;;21.66;60.36
11223;BME280;5668;52.012;8.724;2023-07-13T00:12:53;99997.91;;;21.64;60.64
11223;BME280;5668;52.012;8.724;2023-07-13T00:15:24;99998.25;;;21.61;60.78
11223;BME280;5668;52.012;8.724;2023-07-13T00:17:54;100011.84;;;21.58;60.71
11223;BME280;5668;52.012;8.724;2023-07-13T00:20:24;100017.88;;;21.52;60.90
11223;BME280;5668;52.012;8.724;2023-07-13T00:22:52;100020.69;;;21.50;61.64
11223;BME280;5668;52.012;8.724;2023-07-13T00:25:19;100013.59;;;21.51;61.48
11223;BME280;5668;52.012;8.724;2023-07-13T00:27:48;100006.28;;;21.53;61.39
11223;BME280;5668;52.012;8.724;2023-07-13T00:30:15;100009.59;;;21.55;61.31
11223;BME280;5668;52.012;8.724;2023-07-13T00:32:43;100016.88;;;21.53;61.49
11223;BME280;5668;52.012;8.724;2023-07-13T00:35:14;100013.22;;;21.54;61.43
11223;BME280;5668;52.012;8.724;2023-07-13T00:37:41;100014.22;;;21.53;61.53
11223;BME280;5668;52.012;8.724;2023-07-13T00:40:12;100018.69;;;21.52;61.45
11223;BME280;5668;52.012;8.724;2023-07-13T00:42:40;100022.53;;;21.50;61.50
11223;BME280;5668;52.012;8.724;2023-07-13T00:48:19;100013.69;;;21.43;61.78
11223;BME280;5668;52.012;8.724;2023-07-13T00:50:49;100006.97;;;21.40;61.76
11223;BME280;5668;52.012;8.724;2023-07-13T00:53:19;100009.97;;;21.37;61.88
11223;BME280;5668;52.012;8.724;2023-07-13T00:55:47;100008.75;;;21.90;60.18
11223;BME280;5668;52.012;8.724;2023-07-13T00:58:16;100009.41;;;21.56;60.67
11223;BME280;5668;52.012;8.724;2023-07-13T01:00:43;100014.31;;;21.45;61.27
11223;BME280;5668;52.012;8.724;2023-07-13T01:03:12;100007.50;;;21.36;61.62
11223;BME280;5668;52.012;8.724;2023-07-13T01:05:40;100003.59;;;21.32;62.29
11223;BME280;5668;52.012;8.724;2023-07-13T01:08:08;100002.94;;;21.30;62.20
11223;BME280;5668;52.012;8.724;2023-07-13T01:10:35;100005.34;;;21.24;61.91
11223;BME280;5668;52.012;8.724;2023-07-13T01:13:06;99998.97;;;21.19;62.41
11223;BME280;5668;52.012;8.724;2023-07-13T01:15:38;99998.84;;;21.12;62.64
11223;BME280;5668;52.012;8.724;2023-07-13T01:18:09;100003.84;;;21.07;62.99
11223;BME280;5668;52.012;8.724;2023-07-13T01:20:38;99997.47;;;21.02;63.47
11223;BME280;5668;52.012;8.724;2023-07-13T01:23:08;99998.28;;;21.02;63.45
11223;BME280;5668;52.012;8.724;2023-07-13T01:25:36;100001.94;;;21.01;63.47
11223;BME280;5668;52.012;8.724;2023-07-13T01:28:05;100001.09;;;21.01;63.27
11223;BME280;5668;52.012;8.724;2023-07-13T01:30:32;100007.56;;;20.98;63.31
11223;BME280;5668;52.012;8.724;2023-07-13T01:32:59;100005.94;;;20.97;63.41
11223;BME280;5668;52.012;8.724;2023-07-13T01:35:27;100001.66;;;20.96;63.47
11223;BME280;5668;52.012;8.724;2023-07-13T01:37:54;100000.66;;;20.97;63.30
11223;BME280;5668;52.012;8.724;2023-07-13T01:40:24;99999.53;;;20.92;63.08
11223;BME280;5668;52.012;8.724;2023-07-13T01:42:51;100015.31;;;20.85;63.81
11223;BME280;5668;52.012;8.724;2023-07-13T01:45:18;100014.13;;;20.73;64.22
11223;BME280;5668;52.012;8.724;2023-07-13T01:47:45;100014.25;;;20.57;65.26
11223;BME280;5668;52.012;8.724;2023-07-13T01:50:13;100022.50;;;20.39;66.05
11223;BME280;5668;52.012;8.724;2023-07-13T01:52:41;100026.25;;;20.22;66.77
11223;BME280;5668;52.012;8.724;2023-07-13T01:55:08;100023.81;;;20.12;67.44
11223;BME280;5668;52.012;8.724;2023-07-13T01:57:37;100031.75;;;20.12;67.73
11223;BME280;5668;52.012;8.724;2023-07-13T02:00:14;100023.13;;;20.18;67.01
11223;BME280;5668;52.012;8.724;2023-07-13T02:02:42;100008.66;;;20.14;67.24
11223;BME280;5668;52.012;8.724;2023-07-13T02:05:10;100015.75;;;20.14;67.80
11223;BME280;5668;52.012;8.724;2023-07-13T02:07:37;100017.56;;;20.13;67.70
11223;BME280;5668;52.012;8.724;2023-07-13T02:10:06;100021.69;;;20.07;68.29
11223;BME280;5668;52.012;8.724;2023-07-13T02:12:37;100013.94;;;20.14;67.95
11223;BME280;5668;52.012;8.724;2023-07-13T02:15:05;100025.75;;;20.18;68.09
11223;BME280;5668;52.012;8.724;2023-07-13T02:17:33;100020.16;;;20.21;68.01
11223;BME280;5668;52.012;8.724;2023-07-13T02:20:00;100017.97;;;20.25;68.12
11223;BME280;5668;52.012;8.724;2023-07-13T02:22:28;100012.16;;;20.29;68.24
11223;BME280;5668;52.012;8.724;2023-07-13T02:24:55;100011.66;;;20.34;68.02
11223;BME280;5668;52.012;8.724;2023-07-13T02:27:23;100015.13;;;20.34;68.54
11223;BME280;5668;52.012;8.724;2023-07-13T02:29:51;100015.56;;;20.38;68.33
11223;BME280;5668;52.012;8.724;2023-07-13T02:32:19;100019.03;;;20.38;68.41
11223;BME280;5668;52.012;8.724;2023-07-13T02:34:46;100018.75;;;20.33;69.13
11223;BME280;5668;52.012;8.724;2023-07-13T02:37:13;100015.44;;;20.31;69.03
11223;BME280;5668;52.012;8.724;2023-07-13T02:39:40;100018.78;;;20.25;69.07
11223;BME280;5668;52.012;8.724;2023-07-13T02:42:08;100014.88;;;20.21;69.30
11223;BME280;5668;52.012;8.724;2023-07-13T02:44:35;100011.47;;;20.13;69.84
11223;BME280;5668;52.012;8.724;2023-07-13T02:47:04;100013.63;;;20.09;69.69
11223;BME280;5668;52.012;8.724;2023-07-13T02:49:31;100010.97;;;20.09;69.72
11223;BME280;5668;52.012;8.724;2023-07-13T02:51:58;100004.06;;;20.08;69.16
11223;BME280;5668;52.012;8.724;2023-07-13T02:54:25;100016.97;;;20.03;69.57
11223;BME280;5668;52.012;8.724;2023-07-13T02:56:53;100017.94;;;20.02;69.21
11223;BME280;5668;52.012;8.724;2023-07-13T02:59:20;100014.03;;;19.98;69.72
11223;BME280;5668;52.012;8.724;2023-07-13T03:04:17;100017.63;;;20.05;68.64
11223;BME280;5668;52.012;8.724;2023-07-13T03:06:45;100027.19;;;20.06;68.85
11223;BME280;5668;52.012;8.724;2023-07-13T03:09:12;100023.41;;;20.23;68.35
11223;BME280;5668;52.012;8.724;2023-07-13T03:11:40;100022.94;;;20.20;68.00
11223;BME280;5668;52.012;8.724;2023-07-13T03:14:08;100028.13;;;20.13;67.78
11223;BME280;5668;52.012;8.724;2023-07-13T03:16:35;100033.13;;;20.00;68.17
11223;BME280;5668;52.012;8.724;2023-07-13T03:19:03;100029.59;;;19.85;69.16
11223;BME280;5668;52.012;8.724;2023-07-13T03:21:32;100038.91;;;19.73;69.77
11223;BME280;5668;52.012;8.724;2023-07-13T03:23:59;100035.47;;;19.64;70.49
11223;BME280;5668;52.012;8.724;2023-07-13T03:26:26;100031.19;;;19.63;70.54
11223;BME280;5668;52.012;8.724;2023-07-13T03:28:53;100037.28;;;19.63;70.43
11223;BME280;5668;52.012;8.724;2023-07-13T03:31:23;100041.94;;;19.61;70.84
11223;BME280;5668;52.012;8.724;2023-07-13T03:33:50;100043.22;;;19.65;70.55
11223;BME280;5668;52.012;8.724;2023-07-13T03:36:20;100037.00;;;19.58;71.17
11223;BME280;5668;52.012;8.724;2023-07-13T03:38:50;100046.75;;;19.50;72.13
11223;BME280;5668;52.012;8.724;2023-07-13T03:41:17;100038.19;;;19.48;72.77
11223;BME280;5668;52.012;8.724;2023-07-13T03:43:44;100042.59;;;19.55;72.65
11223;BME280;5668;52.012;8.724;2023-07-13T03:46:13;100042.56;;;19.63;72.22
11223;BME280;5668;52.012;8.724;2023-07-13T03:48:41;100048.78;;;19.70;71.76
11223;BME280;5668;52.012;8.724;2023-07-13T03:51:11;100049.28;;;19.74;71.17
11223;BME280;5668;52.012;8.724;2023-07-13T03:53:40;100054.06;;;19.70;70.94
11223;BME280;5668;52.012;8.724;2023-07-13T03:56:10;100044.72;;;19.68;71.78
11223;BME280;5668;52.012;8.724;2023-07-13T03:58:39;100048.16;;;19.68;71.36
11223;BME280;5668;52.012;8.724;2023-07-13T04:01:10;100048.78;;;19.70;70.97
11223;BME280;5668;52.012;8.724;2023-07-13T04:03:37;100050.44;;;19.71;71.01
11223;BME280;5668;52.012;8.724;2023-07-13T04:06:06;100050.81;;;19.68;70.39
11223;BME280;5668;52.012;8.724;2023-07-13T04:08:35;100061.84;;;19.64;70.69
11223;BME280;5668;52.012;8.724;2023-07-13T04:11:04;100063.19;;;19.60;71.51
11223;BME280;5668;52.012;8.724;2023-07-13T04:13:33;100067.16;;;19.56;71.30
11223;BME280;5668;52.012;8.724;2023-07-13T04:16:00;100064.72;;;19.54;71.29
11223;BME280;5668;52.012;8.724;2023-07-13T04:18:27;100065.34;;;19.56;71.38
11223;BME280;5668;52.012;8.724;2023-07-13T04:20:54;100072.09;;;19.59;70.93
11223;BME280;5668;52.012;8.724;2023-07-13T04:23:22;100080.16;;;19.57;70.88
11223;BME280;5668;52.012;8.724;2023-07-13T04:25:51;100083.66;;;19.50;71.00
11223;BME280;5668;52.012;8.724;2023-07-13T04:28:20;100078.22;;;19.43;70.69
11223;BME280;5668;52.012;8.724;2023-07-13T04:30:49;100079.38;;;19.41;70.70
11223;BME280;5668;52.012;8.724;2023-07-13T04:33:17;100076.72;;;19.49;70.28
11223;BME280;5668;52.012;8.724;2023-07-13T04:35:48;100086.13;;;19.43;69.89
11223;BME280;5668;52.012;8.724;2023-07-13T04:38:16;100082.34;;;19.38;70.48
11223;BME280;5668;52.012;8.724;2023-07-13T04:40:45;100078.22;;;19.43;70.48
11223;BME280;5668;52.012;8.724;2023-07-13T04:43:13;100077.38;;;19.43;70.58
11223;BME280;5668;52.012;8.724;2023-07-13T04:45:40;100087.09;;;19.42;70.48
11223;BME280;5668;52.012;8.724;2023-07-13T04:48:09;100086.78;;;19.45;70.37
11223;BME280;5668;52.012;8.724;2023-07-13T04:50:37;100090.56;;;19.43;70.27
11223;BME280;5668;52.012;8.724;2023-07-13T04:53:04;100084.63;;;19.49;70.39
11223;BME280;5668;52.012;8.724;2023-07-13T04:55:32;100087.78;;;19.52;70.38
11223;BME280;5668;52.012;8.724;2023-07-13T04:57:59;100091.69;;;19.56;69.93
11223;BME280;5668;52.012;8.724;2023-07-13T05:00:28;100095.66;;;19.60;69.96
11223;BME280;5668;52.012;8.724;2023-07-13T05:02:56;100093.66;;;19.62;69.50
11223;BME280;5668;52.012;8.724;2023-07-13T05:05:26;100093.03;;;19.52;69.88
11223;BME280;5668;52.012;8.724;2023-07-13T05:07:54;100096.81;;;19.58;69.74
11223;BME280;5668;52.012;8.724;2023-07-13T05:10:22;100096.13;;;19.64;69.25
11223;BME280;5668;52.012;8.724;2023-07-13T05:12:49;100093.31;;;19.65;69.52
11223;BME280;5668;52.012;8.724;2023-07-13T05:15:17;100093.00;;;19.68;69.58
11223;BME280;5668;52.012;8.724;2023-07-13T05:17:47;100106.16;;;19.77;69.05
11223;BME280;5668;52.012;8.724;2023-07-13T05:20:15;100095.25;;;19.80;69.04
11223;BME280;5668;52.012;8.724;2023-07-13T05:22:46;100104.78;;;19.81;68.65
11223;BME280;5668;52.012;8.724;2023-07-13T05:25:14;100108.72;;;19.85;68.14
11223;BME280;5668;52.012;8.724;2023-07-13T05:27:41;100099.81;;;19.86;68.38
11223;BME280;5668;52.012;8.724;2023-07-13T05:30:12;100106.41;;;19.90;68.30
11223;BME280;5668;52.012;8.724;2023-07-13T05:32:39;100096.53;;;19.92;68.24
11223;BME280;5668;52.012;8.724;2023-07-13T05:35:07;100099.63;;;19.95;67.76
11223;BME280;5668;52.012;8.724;2023-07-13T05:37:34;100100.09;;;19.99;67.87
11223;BME280;5668;52.012;8.724;2023-07-13T05:40:04;100101.72;;;20.00;67.90
11223;BME280;5668;52.012;8.724;2023-07-13T05:42:32;100106.25;;;19.91;67.52
11223;BME280;5668;52.012;8.724;2023-07-13T05:44:59;100107.69;;;19.94;67.80
11223;BME280;5668;52.012;8.724;2023-07-13T05:47:26;100100.56;;;20.02;67.65
11223;BME280;5668;52.012;8.724;2023-07-13T05:49:54;100102.69;;;20.07;67.63
11223;BME280;5668;52.012;8.724;2023-07-13T05:52:21;100095.06;;;20.12;67.62
11223;BME280;5668;52.012;8.724;2023-07-13T05:54:48;100102.81;;;20.14;67.64
11223;BME280;5668;52.012;8.724;2023-07-13T05:57:17;100108.22;;;20.20;67.58
11223;BME280;5668;52.012;8.724;2023-07-13T05:59:44;100108.50;;;20.25;67.55
11223;BME280;5668;52.012;8.724;2023-07-13T06:02:11;100104.72;;;20.28;66.97
11223;BME280;5668;52.012;8.724;2023-07-13T06:04:38;100107.66;;;20.33;67.02
11223;BME280;5668;52.012;8.724;2023-07-13T06:07:06;100109.31;;;20.34;66.59
11223;BME280;5668;52.012;8.724;2023-07-13T06:09:33;100114.88;;;20.39;66.15
11223;BME280;5668;52.012;8.724;2023-07-13T06:12:00;100124.94;;;20.43;65.90
11223;BME280;5668;52.012;8.724;2023-07-13T06:14:29;100120.94;;;20.47;66.05
11223;BME280;5668;52.012;8.724;2023-07-13T06:16:56;100119.78;;;20.50;66.14
11223;BME280;5668;52.012;8.724;2023-07-13T06:19:23;100128.16;;;20.54;65.85
11223;BME280;5668;52.012;8.724;2023-07-13T06:21:50;100118.41;;;20.54;65.71
11223;BME280;5668;52.012;8.724;2023-07-13T06:24:18;100126.66;;;20.59;65.58
11223;BME280;5668;52.012;8.724;2023-07-13T06:26:45;100114.91;;;20.62;65.49
11223;BME280;5668;52.012;8.724;2023-07-13T06:29:12;100118.19;;;20.64;65.60
11223;BME280;5668;52.012;8.724;2023-07-13T06:31:41;100117.53;;;20.62;65.13
11223;BME280;5668;52.012;8.724;2023-07-13T06:34:08;100131.41;;;20.64;65.11
11223;BME280;5668;52.012;8.724;2023-07-13T06:36:36;100135.13;;;20.69;65.47
11223;BME280;5668;52.012;8.724;2023-07-13T06:39:04;100126.00;;;20.80;65.67
11223;BME280;5668;52.012;8.724;2023-07-13T06:41:31;100133.84;;;20.88;65.49
11223;BME280;5668;52.012;8.724;2023-07-13T06:43:59;100137.75;;;20.92;65.63
11223;BME280;5668;52.012;8.724;2023-07-13T06:46:28;100131.31;;;20.95;65.66
11223;BME280;5668;52.012;8.724;2023-07-13T06:48:57;100136.06;;;20.99;65.63
11223;BME280;5668;52.012;8.724;2023-07-13T06:51:24;100135.72;;;21.02;65.77
11223;BME280;5668;52.012;8.724;2023-07-13T06:53:51;100131.69;;;21.06;66.04
11223;BME280;5668;52.012;8.724;2023-07-13T06:56:20;100137.81;;;21.07;65.62
11223;BME280;5668;52.012;8.724;2023-07-13T06:58:47;100136.63;;;21.09;65.96
11223;BME280;5668;52.012;8.724;2023-07-13T07:01:14;100133.00;;;21.10;65.96
11223;BME280;5668;52.012;8.724;2023-07-13T07:03:41;100133.66;;;21.12;66.21
11223;BME280;5668;52.012;8.724;2023-07-13T07:06:15;100140.88;;;21.18;66.04
11223;BME280;5668;52.012;8.724;2023-07-13T07:08:42;100142.31;;;21.21;66.06
11223;BME280;5668;52.012;8.724;2023-07-13T07:11:13;100145.44;;;21.24;66.04
11223;BME280;5668;52.012;8.724;2023-07-13T07:13:40;100139.59;;;21.29;66.28
11223;BME280;5668;52.012;8.724;2023-07-13T07:16:08;100141.72;;;21.34;65.89
11223;BME280;5668;52.012;8.724;2023-07-13T07:18:35;100139.00;;;21.42;65.96
11223;BME280;5668;52.012;8.724;2023-07-13T07:21:03;100138.91;;;21.50;65.90
11223;BME280;5668;52.012;8.724;2023-07-13T07:23:32;100150.41;;;21.57;65.79
11223;BME280;5668;52.012;8.724;2023-07-13T07:25:59;100148.84;;;21.62;65.43
11223;BME280;5668;52.012;8.724;2023-07-13T07:28:26;100151.59;;;21.69;65.71
11223;BME280;5668;52.012;8.724;2023-07-13T07:30:55;100153.13;;;21.78;64.88
11223;BME280;5668;52.012;8.724;2023-07-13T07:33:23;100152.75;;;21.81;65.07
11223;BME280;5668;52.012;8.724;2023-07-13T07:35:51;100155.69;;;21.86;64.68
11223;BME280;5668;52.012;8.724;2023-07-13T07:38:18;100150.66;;;21.91;63.96
11223;BME280;5668;52.012;8.724;2023-07-13T07:40:47;100148.66;;;21.93;64.59
11223;BME280;5668;52.012;8.724;2023-07-13T07:43:14;100142.66;;;21.99;64.75
11223;BME280;5668;52.012;8.724;2023-07-13T07:45:41;100149.47;;;22.09;64.24
11223;BME280;5668;52.012;8.724;2023-07-13T07:48:09;100151.13;;;22.10;63.79
11223;BME280;5668;52.012;8.724;2023-07-13T07:50:36;100151.75;;;22.12;63.57
11223;BME280;5668;52.012;8.724;2023-07-13T07:53:05;100144.44;;;22.14;63.09
11223;BME280;5668;52.012;8.724;2023-07-13T07:55:33;100151.94;;;22.10;63.33
11223;BME280;5668;52.012;8.724;2023-07-13T07:58:02;100142.53;;;22.08;64.13
11223;BME280;5668;52.012;8.724;2023-07-13T08:00:29;100156.41;;;22.10;64.13
11223;BME280;5668;52.012;8.724;2023-07-13T08:02:58;100152.66;;;22.04;63.80
11223;BME280;5668;52.012;8.724;2023-07-13T08:05:25;100155.13;;;22.06;63.90
11223;BME280;5668;52.012;8.724;2023-07-13T08:07:52;100153.97;;;22.08;63.70
11223;BME280;5668;52.012;8.724;2023-07-13T08:10:21;100165.63;;;22.14;63.43
11223;BME280;5668;52.012;8.724;2023-07-13T08:12:48;100168.34;;;22.20;63.62
11223;BME280;5668;52.012;8.724;2023-07-13T08:15:19;100169.63;;;22.24;63.77
11223;BME280;5668;52.012;8.724;2023-07-13T08:17:47;100160.22;;;22.22;63.50
11223;BME280;5668;52.012;8.724;2023-07-13T08:20:15;100163.75;;;22.29;63.42
11223;BME280;5668;52.012;8.724;2023-07-13T08:22:42;100162.75;;;22.30;63.03
11223;BME280;5668;52.012;8.724;2023-07-13T08:25:09;100159.94;;;22.31;63.12
11223;BME280;5668;52.012;8.724;2023-07-13T08:27:37;100160.94;;;22.30;62.92
11223;BME280;5668;52.012;8.724;2023-07-13T08:30:06;100166.06;;;22.32;63.00
11223;BME280;5668;52.012;8.724;2023-07-13T08:32:37;100164.41;;;22.31;63.04
11223;BME280;5668;52.012;8.724;2023-07-13T08:35:05;100168.88;;;22.30;62.99
11223;BME280;5668;52.012;8.724;2023-07-13T08:37:32;100160.44;;;22.42;63.14
11223;BME280;5668;52.012;8.724;2023-07-13T08:39:59;100165.44;;;22.51;63.07
11223;BME280;5668;52.012;8.724;2023-07-13T08:42:33;100165.00;;;22.48;62.15
11223;BME280;5668;52.012;8.724;2023-07-13T08:45:08;100174.78;;;22.47;62.18
11223;BME280;5668;52.012;8.724;2023-07-13T08:47:44;100170.72;;;22.51;62.15
11223;BME280;5668;52.012;8.724;2023-07-13T08:50:15;100174.03;;;22.53;61.79
11223;BME280;5668;52.012;8.724;2023-07-13T08:52:44;100164.56;;;22.65;62.20
11223;BME280;5668;52.012;8.724;2023-07-13T08:55:15;100167.44;;;22.70;61.78
11223;BME280;5668;52.012;8.724;2023-07-13T08:57:46;100166.44;;;22.71;61.37
11223;BME280;5668;52.012;8.724;2023-07-13T09:00:15;100163.47;;;22.74;61.64
11223;BME280;5668;52.012;8.724;2023-07-13T09:02:46;100156.38;;;22.82;62.04
11223;BME280;5668;52.012;8.724;2023-07-13T09:05:25;100153.59;;;22.90;61.94
11223;BME280;5668;52.012;8.724;2023-07-13T09:08:04;100159.59;;;22.98;60.27
11223;BME280;5668;52.012;8.724;2023-07-13T09:10:44;100162.50;;;23.03;60.13
11223;BME280;5668;52.012;8.724;2023-07-13T09:13:23;100165.19;;;23.10;60.23
11223;BME280;5668;52.012;8.724;2023-07-13T09:15:52;100163.59;;;23.15;59.95
11223;BME280;5668;52.012;8.724;2023-07-13T09:18:26;100164.03;;;23.19;59.18
11223;BME280;5668;52.012;8.724;2023-07-13T09:20:58;100165.88;;;23.19;57.74
11223;BME280;5668;52.012;8.724;2023-07-13T09:23:29;100160.75;;;23.17;57.72
11223;BME280;5668;52.012;8.724;2023-07-13T09:26:02;100164.88;;;23.20;57.72
11223;BME280;5668;52.012;8.724;2023-07-13T09:28:37;100162.84;;;23.22;57.62
11223;BME280;5668;52.012;8.724;2023-07-13T09:31:07;100163.09;;;23.27;56.74
11223;BME280;5668;52.012;8.724;2023-07-13T09:33:39;100168.63;;;23.32;57.15
11223;BME280;5668;52.012;8.724;2023-07-13T09:36:18;100167.66;;;23.39;57.13
11223;BME280;5668;52.012;8.724;2023-07-13T09:38:46;100168.28;;;23.41;56.99
11223;BME280;5668;52.012;8.724;2023-07-13T09:41:21;100167.50;;;23.47;56.57
11223;BME280;5668;52.012;8.724;2023-07-13T09:44:08;100168.34;;;23.48;55.87
11223;BME280;5668;52.012;8.724;2023-07-13T09:46:37;100170.81;;;23.49;54.99
11223;BME280;5668;52.012;8.724;2023-07-13T09:49:07;100160.44;;;23.54;55.64
11223;BME280;5668;52.012;8.724;2023-07-13T09:51:37;100169.66;;;23.59;55.71
11223;BME280;5668;52.012;8.724;2023-07-13T09:54:04;100172.50;;;23.57;55.25
11223;BME280;5668;52.012;8.724;2023-07-13T09:56:32;100169.69;;;23.65;55.98
11223;BME280;5668;52.012;8.724;2023-07-13T09:58:59;100169.25;;;23.62;54.11
11223;BME280;5668;52.012;8.724;2023-07-13T10:01:34;100178.22;;;23.61;54.03
11223;BME280;5668;52.012;8.724;2023-07-13T10:04:03;100179.69;;;23.63;54.47
11223;BME280;5668;52.012;8.724;2023-07-13T10:06:39;100179.31;;;23.66;54.44
11223;BME280;5668;52.012;8.724;2023-07-13T10:09:09;100179.34;;;23.73;54.67
11223;BME280;5668;52.012;8.724;2023-07-13T10:11:40;100177.69;;;23.72;54.18
11223;BME280;5668;52.012;8.724;2023-07-13T10:14:13;100175.22;;;23.70;54.02
11223;BME280;5668;52.012;8.724;2023-07-13T10:16:42;100165.66;;;23.76;54.39
11223;BME280;5668;52.012;8.724;2023-07-13T10:19:14;100165.31;;;23.85;54.76
11223;BME280;5668;52.012;8.724;2023-07-13T10:21:50;100175.56;;;23.95;54.75
11223;BME280;5668;52.012;8.724;2023-07-13T10:24:20;100173.78;;;24.02;53.94
11223;BME280;5668;52.012;8.724;2023-07-13T10:26:52;100167.44;;;24.03;53.95
11223;BME280;5668;52.012;8.724;2023-07-13T10:29:22;100173.97;;;24.01;53.54
11223;BME280;5668;52.012;8.724;2023-07-13T10:31:52;100181.09;;;24.00;53.89
11223;BME280;5668;52.012;8.724;2023-07-13T10:34:19;100179.47;;;23.99;53.72
11223;BME280;5668;52.012;8.724;2023-07-13T10:36:48;100181.09;;;24.00;53.20
11223;BME280;5668;52.012;8.724;2023-07-13T10:39:18;100177.63;;;24.00;53.73
11223;BME280;5668;52.012;8.724;2023-07-13T10:41:50;100177.06;;;24.04;54.16
11223;BME280;5668;52.012;8.724;2023-07-13T10:44:22;100174.22;;;24.12;53.83
11223;BME280;5668;52.012;8.724;2023-07-13T10:46:53;100172.59;;;24.18;53.29
11223;BME280;5668;52.012;8.724;2023-07-13T10:49:22;100172.66;;;24.24;53.23
11223;BME280;5668;52.012;8.724;2023-07-13T10:51:51;100174.13;;;24.34;52.88
11223;BME280;5668;52.012;8.724;2023-07-13T10:54:21;100174.94;;;24.34;52.04
11223;BME280;5668;52.012;8.724;2023-07-13T10:56:53;100176.97;;;24.32;51.63
11223;BME280;5668;52.012;8.724;2023-07-13T10:59:34;100185.56;;;24.34;51.81
11223;BME280;5668;52.012;8.724;2023-07-13T11:02:11;100187.25;;;24.42;51.95
11223;BME280;5668;52.012;8.724;2023-07-13T11:04:44;100191.31;;;24.44;51.89
11223;BME280;5668;52.012;8.724;2023-07-13T11:07:21;100182.16;;;24.53;52.55
11223;BME280;5668;52.012;8.724;2023-07-13T11:09:50;100173.59;;;24.58;52.50
11223;BME280;5668;52.012;8.724;2023-07-13T11:15:13;100174.22;;;24.73;52.08
11223;BME280;5668;52.012;8.724;2023-07-13T11:17:53;100177.91;;;24.79;51.40
11223;BME280;5668;52.012;8.724;2023-07-13T11:20:33;100175.25;;;24.79;50.41
11223;BME280;5668;52.012;8.724;2023-07-13T11:23:30;100176.06;;;24.73;49.82
11223;BME280;5668;52.012;8.724;2023-07-13T11:25:59;100159.50;;;24.64;49.76
11223;BME280;5668;52.012;8.724;2023-07-13T11:28:31;100175.44;;;24.64;50.23
11223;BME280;5668;52.012;8.724;2023-07-13T11:31:16;100173.38;;;24.59;50.56
11223;BME280;5668;52.012;8.724;2023-07-13T11:33:56;100174.38;;;24.52;50.44
11223;BME280;5668;52.012;8.724;2023-07-13T11:36:29;100188.47;;;24.46;50.31
11223;BME280;5668;52.012;8.724;2023-07-13T11:39:02;100178.25;;;24.43;50.30
11223;BME280;5668;52.012;8.724;2023-07-13T11:41:34;100174.56;;;24.44;50.29
11223;BME280;5668;52.012;8.724;2023-07-13T11:44:07;100179.88;;;24.44;50.94
11223;BME280;5668;52.012;8.724;2023-07-13T11:46:35;100180.72;;;24.51;51.28
11223;BME280;5668;52.012;8.724;2023-07-13T11:49:05;100172.94;;;24.49;50.63
11223;BME280;5668;52.012;8.724;2023-07-13T11:51:35;100167.56;;;24.36;50.11
11223;BME280;5668;52.012;8.724;2023-07-13T11:54:06;100179.84;;;24.37;50.41
11223;BME280;5668;52.012;8.724;2023-07-13T11:56:41;100180.69;;;24.44;50.85
11223;BME280;5668;52.012;8.724;2023-07-13T11:59:12;100177.03;;;24.52;50.97
11223;BME280;5668;52.012;8.724;2023-07-13T12:01:44;100170.09;;;24.57;50.32
11223;BME280;5668;52.012;8.724;2023-07-13T12:04:19;100169.69;;;24.54;50.09
11223;BME280;5668;52.012;8.724;2023-07-13T12:06:57;100162.72;;;24.53;50.23
11223;BME280;5668;52.012;8.724;2023-07-13T12:09:28;100166.00;;;24.61;51.32
11223;BME280;5668;52.012;8.724;2023-07-13T12:11:57;100175.00;;;24.67;50.39
11223;BME280;5668;52.012;8.724;2023-07-13T12:14:26;100174.63;;;24.63;50.07
11223;BME280;5668;52.012;8.724;2023-07-13T12:16:54;100180.13;;;24.62;49.83
11223;BME280;5668;52.012;8.724;2023-07-13T12:19:23;100177.06;;;24.65;50.54
11223;BME280;5668;52.012;8.724;2023-07-13T12:21:55;100167.28;;;24.72;50.53
11223;BME280;5668;52.012;8.724;2023-07-13T12:24:24;100169.94;;;24.72;50.35
11223;BME280;5668;52.012;8.724;2023-07-13T12:26:54;100169.75;;;24.80;49.98
11223;BME280;5668;52.012;8.724;2023-07-13T12:29:21;100170.97;;;24.84;49.95
11223;BME280;5668;52.012;8.724;2023-07-13T12:31:49;100169.31;;;24.83;49.74
11223;BME280;5668;52.012;8.724;2023-07-13T12:34:20;100179.31;;;24.81;49.07
11223;BME280;5668;52.012;8.724;2023-07-13T12:36:49;100181.59;;;24.71;48.57
11223;BME280;5668;52.012;8.724;2023-07-13T12:39:19;100185.88;;;24.65;49.35
11223;BME280;5668;52.012;8.724;2023-07-13T12:41:47;100183.78;;;24.61;49.28
11223;BME280;5668;52.012;8.724;2023-07-13T12:44:18;100187.47;;;24.60;50.12
11223;BME280;5668;52.012;8.724;2023-07-13T12:46:57;100178.69;;;24.66;50.31
11223;BME280;5668;52.012;8.724;2023-07-13T12:49:29;100185.47;;;24.75;49.85
11223;BME280;5668;52.012;8.724;2023-07-13T12:51:59;100181.59;;;24.78;49.48
11223;BME280;5668;52.012;8.724;2023-07-13T12:54:27;100179.13;;;24.83;48.51
11223;BME280;5668;52.012;8.724;2023-07-13T12:56:56;100176.91;;;24.86;47.32
11223;BME280;5668;52.012;8.724;2023-07-13T12:59:30;100178.31;;;24.82;46.55
11223;BME280;5668;52.012;8.724;2023-07-13T13:02:02;100175.06;;;24.80;45.82
11223;BME280;5668;52.012;8.724;2023-07-13T13:04:44;100165.63;;;24.84;46.93
11223;BME280;5668;52.012;8.724;2023-07-13T13:07:12;100167.31;;;24.92;46.50
11223;BME280;5668;52.012;8.724;2023-07-13T13:09:39;100164.25;;;25.01;46.10
11223;BME280;5668;52.012;8.724;2023-07-13T13:12:07;100165.47;;;25.05;46.40
11223;BME280;5668;52.012;8.724;2023-07-13T13:14:37;100171.41;;;25.14;46.45
11223;BME280;5668;52.012;8.724;2023-07-13T13:17:07;100164.88;;;25.23;46.77
11223;BME280;5668;52.012;8.724;2023-07-13T13:19:45;100175.91;;;25.33;46.22